createdAt,value
2019-03-16T00:02:01.658Z,3.10
2019-03-16T00:04:32.244Z,2.70
2019-03-16T00:07:02.786Z,3.20
2019-03-16T00:09:34.366Z,3.00
2019-03-16T00:12:04.927Z,3.00
2019-03-16T00:14:35.566Z,2.83
2019-03-16T00:17:06.029Z,2.30
2019-03-16T00:19:36.517Z,2.03
2019-03-16T00:22:07.377Z,2.30
2019-03-16T00:24:38.057Z,2.13
2019-03-16T00:27:08.500Z,1.97
2019-03-16T00:29:38.984Z,2.10
2019-03-16T00:32:13.753Z,1.80
2019-03-16T00:34:41.593Z,1.70
2019-03-16T00:37:12.245Z,1.30
2019-03-16T00:39:42.865Z,1.53
2019-03-16T00:42:13.341Z,1.60
2019-03-16T00:44:43.881Z,1.20
2019-03-16T00:47:14.346Z,1.20
2019-03-16T00:49:44.896Z,1.13
2019-03-16T00:52:15.401Z,1.10
2019-03-16T00:54:46.001Z,0.90
2019-03-16T00:57:16.801Z,1.03
2019-03-16T00:59:47.246Z,0.90
2019-03-16T01:02:26.983Z,1.17
2019-03-16T01:04:49.776Z,1.23
2019-03-16T01:07:21.369Z,1.33
2019-03-16T01:09:51.853Z,1.03
2019-03-16T01:12:22.353Z,1.40
2019-03-16T01:14:53.671Z,0.97
2019-03-16T01:17:24.161Z,1.43
2019-03-16T01:19:54.578Z,1.20
2019-03-16T01:22:27.937Z,1.20
2019-03-16T01:24:58.662Z,1.40
2019-03-16T01:27:29.141Z,1.40
2019-03-16T01:29:59.788Z,1.13
2019-03-16T01:32:40.027Z,1.37
2019-03-16T01:35:02.347Z,1.30
2019-03-16T01:37:32.912Z,1.47
2019-03-16T01:40:04.539Z,1.30
2019-03-16T01:42:34.994Z,1.17
2019-03-16T01:45:05.867Z,1.40
2019-03-16T01:47:36.315Z,1.40
2019-03-16T01:50:07.206Z,1.30
2019-03-16T01:52:37.689Z,1.13
2019-03-16T01:55:08.450Z,1.40
2019-03-16T01:57:39.007Z,1.20
2019-03-16T02:00:10.320Z,1.10
2019-03-16T02:02:53.686Z,1.10
2019-03-16T02:05:13.980Z,1.50
2019-03-16T02:07:44.495Z,1.27
2019-03-16T02:10:15.005Z,0.90
2019-03-16T02:12:45.521Z,0.97
2019-03-16T02:15:17.173Z,1.40
2019-03-16T02:17:47.849Z,1.30
2019-03-16T02:20:20.023Z,1.53
2019-03-16T02:22:50.579Z,1.37
2019-03-16T02:25:21.059Z,1.20
2019-03-16T02:27:51.650Z,1.43
2019-03-16T02:30:22.216Z,1.23
2019-03-16T02:32:52.793Z,1.20
2019-03-16T02:35:23.270Z,1.07
2019-03-16T02:37:53.860Z,1.27
2019-03-16T02:40:24.360Z,1.00
2019-03-16T02:42:55.832Z,1.20
2019-03-16T02:45:26.392Z,1.00
2019-03-16T02:47:56.822Z,1.17
2019-03-16T02:50:27.288Z,1.37
2019-03-16T02:52:57.731Z,1.07
2019-03-16T02:55:28.269Z,1.20
2019-03-16T02:57:58.798Z,1.30
2019-03-16T03:00:29.570Z,1.60
2019-03-16T03:03:00.079Z,1.33
2019-03-16T03:05:30.543Z,1.10
2019-03-16T03:08:01.061Z,1.30
2019-03-16T03:10:32.553Z,1.10
2019-03-16T03:13:03.141Z,1.20
2019-03-16T03:15:33.727Z,1.20
2019-03-16T03:18:04.251Z,1.30
2019-03-16T03:20:34.812Z,1.17
2019-03-16T03:23:05.425Z,1.50
2019-03-16T03:25:35.919Z,1.30
2019-03-16T03:28:06.529Z,1.53
2019-03-16T03:30:37.140Z,1.20
2019-03-16T03:33:07.650Z,1.20
2019-03-16T03:35:38.136Z,1.63
2019-03-16T03:38:08.604Z,1.30
2019-03-16T03:40:39.034Z,1.90
2019-03-16T03:43:09.517Z,1.30
2019-03-16T03:45:39.989Z,1.37
2019-03-16T03:48:10.590Z,1.30
2019-03-16T03:50:41.128Z,1.53
2019-03-16T03:53:11.551Z,1.03
2019-03-16T03:55:42.095Z,1.50
2019-03-16T03:58:12.544Z,1.23
2019-03-16T04:00:43.045Z,1.20
2019-03-16T04:03:13.479Z,0.97
2019-03-16T04:05:43.991Z,1.20
2019-03-16T04:08:14.474Z,1.20
2019-03-16T04:10:44.917Z,1.27
2019-03-16T04:13:15.457Z,1.27
2019-03-16T04:15:45.973Z,1.33
2019-03-16T04:18:16.439Z,1.80
2019-03-16T04:20:47.012Z,1.67
2019-03-16T04:23:17.557Z,1.50
2019-03-16T04:25:48.034Z,1.30
2019-03-16T04:28:18.666Z,1.53
2019-03-16T04:30:49.435Z,1.60
2019-03-16T04:33:20.018Z,1.80
2019-03-16T04:35:50.702Z,1.40
2019-03-16T04:38:21.274Z,1.50
2019-03-16T04:40:52.116Z,1.67
2019-03-16T04:43:22.585Z,2.10
2019-03-16T04:45:53.190Z,1.67
2019-03-16T04:48:23.700Z,1.90
2019-03-16T04:50:54.130Z,1.90
2019-03-16T04:53:24.654Z,2.33
2019-03-16T04:55:55.288Z,2.00
2019-03-16T04:58:25.847Z,1.77
2019-03-16T05:00:56.598Z,2.00
2019-03-16T05:03:27.093Z,2.10
2019-03-16T05:05:57.495Z,1.93
2019-03-16T05:08:28.105Z,1.37
2019-03-16T05:10:58.527Z,2.40
2019-03-16T05:13:29.066Z,1.60
2019-03-16T05:15:59.823Z,2.37
2019-03-16T05:18:30.314Z,1.83
2019-03-16T05:21:00.867Z,1.80
2019-03-16T05:23:31.491Z,2.23
2019-03-16T05:26:02.093Z,2.37
2019-03-16T05:28:32.593Z,2.00
2019-03-16T05:31:03.095Z,1.80
2019-03-16T05:33:33.723Z,2.10
2019-03-16T05:36:04.272Z,2.30
2019-03-16T05:38:34.794Z,1.90
2019-03-16T05:41:05.410Z,2.87
2019-03-16T05:43:35.889Z,2.03
2019-03-16T05:46:06.322Z,2.20
2019-03-16T05:48:36.897Z,1.87
2019-03-16T05:51:07.392Z,1.70
2019-03-16T05:53:37.922Z,1.80
2019-03-16T05:56:08.591Z,1.90
2019-03-16T05:58:39.082Z,2.00
2019-03-16T06:01:09.582Z,2.10
2019-03-16T06:03:40.215Z,1.93
2019-03-16T06:06:10.732Z,1.90
2019-03-16T06:08:41.210Z,2.17
2019-03-16T06:11:11.925Z,1.60
2019-03-16T06:13:43.493Z,2.40
2019-03-16T06:16:14.008Z,1.77
2019-03-16T06:18:46.128Z,1.70
2019-03-16T06:21:16.912Z,1.70
2019-03-16T06:23:47.458Z,2.17
2019-03-16T06:26:17.981Z,2.17
2019-03-16T06:28:48.568Z,1.73
2019-03-16T06:31:20.102Z,1.93
2019-03-16T06:33:50.632Z,2.20
2019-03-16T06:36:21.141Z,1.87
2019-03-16T06:38:51.892Z,1.60
2019-03-16T06:41:22.331Z,1.63
2019-03-16T06:43:53.025Z,1.80
2019-03-16T06:46:23.471Z,2.20
2019-03-16T06:48:54.911Z,2.27
2019-03-16T06:51:25.378Z,1.63
2019-03-16T06:53:55.899Z,1.70
2019-03-16T06:56:26.351Z,2.03
2019-03-16T06:58:58.439Z,1.50
2019-03-16T07:01:29.209Z,2.00
2019-03-16T07:03:59.736Z,1.90
2019-03-16T07:06:31.279Z,1.70
2019-03-16T07:09:02.336Z,2.33
2019-03-16T07:11:32.926Z,1.93
2019-03-16T07:14:03.469Z,1.80
2019-03-16T07:16:34.045Z,2.10
2019-03-16T07:19:04.712Z,2.53
2019-03-16T07:21:35.314Z,2.37
2019-03-16T07:24:05.930Z,2.13
2019-03-16T07:26:36.413Z,2.00
2019-03-16T07:29:06.994Z,2.00
2019-03-16T07:31:37.580Z,2.33
2019-03-16T07:34:08.196Z,1.83
2019-03-16T07:36:39.814Z,2.17
2019-03-16T07:39:10.292Z,2.80
2019-03-16T07:41:40.884Z,2.00
2019-03-16T07:44:11.600Z,2.57
2019-03-16T07:46:42.189Z,2.13
2019-03-16T07:49:13.086Z,2.40
2019-03-16T07:51:43.647Z,2.30
2019-03-16T07:54:14.559Z,2.27
2019-03-16T07:56:45.647Z,2.70
2019-03-16T07:59:16.230Z,2.30
2019-03-16T08:01:46.763Z,2.20
2019-03-16T08:04:18.249Z,2.27
2019-03-16T08:06:48.718Z,2.70
2019-03-16T08:09:19.516Z,2.40
2019-03-16T08:11:50.125Z,2.40
2019-03-16T08:14:20.766Z,2.03
2019-03-16T08:16:51.314Z,2.50
2019-03-16T08:19:21.864Z,2.77
2019-03-16T08:21:52.435Z,2.47
2019-03-16T08:24:22.871Z,2.80
2019-03-16T08:26:53.453Z,2.20
2019-03-16T08:29:24.059Z,2.65
2019-03-16T08:31:54.652Z,1.83
2019-03-16T08:34:25.590Z,2.97
2019-03-16T08:36:56.040Z,1.90
2019-03-16T08:39:26.564Z,2.20
2019-03-16T08:41:57.057Z,2.63
2019-03-16T08:44:27.702Z,2.63
2019-03-16T08:46:58.281Z,2.13
2019-03-16T08:49:28.957Z,2.10
2019-03-16T08:51:59.535Z,2.53
2019-03-16T08:54:30.029Z,2.27
2019-03-16T08:57:00.496Z,2.77
2019-03-16T08:59:31.282Z,3.03
2019-03-16T09:02:01.750Z,2.90
2019-03-16T09:04:34.338Z,2.53
2019-03-16T09:07:06.046Z,2.40
2019-03-16T09:09:36.669Z,2.60
2019-03-16T09:12:07.127Z,2.20
2019-03-16T09:14:37.750Z,2.40
2019-03-16T09:17:09.197Z,3.40
2019-03-16T09:19:39.864Z,2.47
2019-03-16T09:22:10.639Z,1.80
2019-03-16T09:24:41.109Z,2.27
2019-03-16T09:27:11.685Z,1.70
2019-03-16T09:29:42.339Z,2.50
2019-03-16T09:32:12.976Z,2.43
2019-03-16T09:34:43.518Z,2.07
2019-03-16T09:37:14.017Z,2.60
2019-03-16T09:39:44.496Z,2.17
2019-03-16T09:42:15.103Z,2.77
2019-03-16T09:44:45.707Z,2.07
2019-03-16T09:47:16.381Z,2.17
2019-03-16T09:49:46.886Z,2.77
2019-03-16T09:52:17.437Z,2.63
2019-03-16T09:54:50.918Z,2.23
2019-03-16T09:57:21.392Z,2.10
2019-03-16T09:59:51.996Z,2.00
2019-03-16T10:02:22.637Z,2.40
2019-03-16T10:04:53.195Z,2.40
2019-03-16T10:07:23.763Z,2.00
2019-03-16T10:09:54.266Z,2.23
2019-03-16T10:12:24.761Z,2.90
2019-03-16T10:14:55.339Z,1.87
2019-03-16T10:17:25.900Z,2.50
2019-03-16T10:19:56.414Z,2.50
2019-03-16T10:22:26.898Z,1.90
2019-03-16T10:24:57.502Z,2.57
2019-03-16T10:27:28.046Z,2.77
2019-03-16T10:29:58.501Z,2.43
2019-03-16T10:32:28.997Z,2.57
2019-03-16T10:34:59.521Z,2.20
2019-03-16T10:37:30.070Z,2.23
2019-03-16T10:40:00.641Z,2.30
2019-03-16T10:42:32.271Z,2.23
2019-03-16T10:45:02.869Z,2.20
2019-03-16T10:47:33.702Z,2.50
2019-03-16T10:50:04.929Z,2.20
2019-03-16T10:52:35.664Z,2.20
2019-03-16T10:55:06.525Z,2.17
2019-03-16T10:57:37.061Z,2.03
2019-03-16T11:00:07.845Z,2.10
2019-03-16T11:02:39.978Z,1.77
2019-03-16T11:05:10.443Z,1.90
2019-03-16T11:07:40.938Z,2.57
2019-03-16T11:10:11.397Z,2.37
2019-03-16T11:12:41.881Z,2.33
2019-03-16T11:15:12.347Z,2.13
2019-03-16T11:17:42.965Z,2.40
2019-03-16T11:20:13.544Z,2.00
2019-03-16T11:22:44.083Z,2.62
2019-03-16T11:25:14.731Z,2.13
2019-03-16T11:27:45.270Z,2.70
2019-03-16T11:30:15.927Z,2.27
2019-03-16T11:32:46.542Z,2.30
2019-03-16T11:35:17.037Z,2.53
2019-03-16T11:37:47.632Z,2.30
2019-03-16T11:40:18.378Z,2.60
2019-03-16T11:42:49.016Z,3.17
2019-03-16T11:45:19.627Z,2.60
2019-03-16T11:47:50.407Z,2.43
2019-03-16T11:50:20.896Z,2.53
2019-03-16T11:52:51.460Z,2.10
2019-03-16T11:55:22.085Z,2.97
2019-03-16T11:57:52.529Z,2.10
2019-03-16T12:00:23.447Z,2.10
2019-03-16T12:02:54.030Z,2.93
2019-03-16T12:05:24.547Z,2.13
2019-03-16T12:07:55.041Z,2.50
2019-03-16T12:10:25.510Z,2.50
2019-03-16T12:12:55.999Z,2.10
2019-03-16T12:15:26.594Z,2.20
2019-03-16T12:17:57.149Z,2.80
2019-03-16T12:20:27.713Z,2.20
2019-03-16T12:22:58.347Z,2.53
2019-03-16T12:25:28.921Z,2.40
2019-03-16T12:27:59.810Z,2.57
2019-03-16T12:30:31.215Z,2.30
2019-03-16T12:33:01.883Z,2.07
2019-03-16T12:35:32.308Z,2.93
2019-03-16T12:38:02.812Z,2.63
2019-03-16T12:40:33.346Z,2.60
2019-03-16T12:43:03.871Z,2.77
2019-03-16T12:45:34.306Z,2.77
2019-03-16T12:48:04.951Z,2.33
2019-03-16T12:50:35.467Z,2.30
2019-03-16T12:53:05.919Z,2.87
2019-03-16T12:55:36.416Z,3.03
2019-03-16T12:58:06.953Z,2.43
2019-03-16T13:00:37.383Z,2.67
2019-03-16T13:03:08.262Z,3.00
2019-03-16T13:05:38.786Z,2.20
2019-03-16T13:08:09.248Z,2.40
2019-03-16T13:10:39.693Z,2.93
2019-03-16T13:13:10.265Z,2.57
2019-03-16T13:15:40.937Z,2.60
2019-03-16T13:18:12.393Z,2.40
2019-03-16T13:20:42.919Z,2.60
2019-03-16T13:23:13.507Z,2.50
2019-03-16T13:25:44.022Z,2.83
2019-03-16T13:28:14.532Z,3.10
2019-03-16T13:30:45.174Z,2.40
2019-03-16T13:33:15.677Z,2.70
2019-03-16T13:35:46.286Z,2.50
2019-03-16T13:38:17.900Z,2.40
2019-03-16T13:40:48.419Z,3.80
2019-03-16T13:43:18.966Z,2.97
2019-03-16T13:45:49.526Z,2.47
2019-03-16T13:48:19.996Z,2.80
2019-03-16T13:50:50.496Z,4.40
2019-03-16T13:53:21.003Z,2.27
2019-03-16T13:55:51.661Z,2.67
2019-03-16T13:58:22.206Z,2.57
2019-03-16T14:00:52.724Z,3.13
2019-03-16T14:03:23.327Z,2.67
2019-03-16T14:05:53.941Z,3.00
2019-03-16T14:08:24.405Z,3.27
2019-03-16T14:10:55.048Z,2.80
2019-03-16T14:13:25.789Z,2.43
2019-03-16T14:15:56.485Z,2.53
2019-03-16T14:18:26.947Z,2.53
2019-03-16T14:20:57.531Z,2.37
2019-03-16T14:23:29.001Z,3.07
2019-03-16T14:25:59.657Z,2.80
2019-03-16T14:28:30.414Z,3.10
2019-03-16T14:31:01.221Z,4.00
2019-03-16T14:33:31.959Z,3.07
2019-03-16T14:36:02.856Z,3.57
2019-03-16T14:38:33.663Z,3.60
2019-03-16T14:41:04.248Z,3.80
2019-03-16T14:43:34.978Z,4.73
2019-03-16T14:46:05.671Z,3.80
2019-03-16T14:48:36.333Z,3.97
2019-03-16T14:51:07.152Z,4.47
2019-03-16T14:53:37.718Z,5.80
2019-03-16T14:56:08.556Z,2.90
2019-03-16T14:58:39.258Z,3.40
2019-03-16T15:01:10.062Z,3.23
2019-03-16T15:03:40.774Z,3.43
2019-03-16T15:06:11.329Z,3.73
2019-03-16T15:08:43.491Z,3.60
2019-03-16T15:11:14.097Z,6.87
2019-03-16T15:13:44.999Z,4.53
2019-03-16T15:16:15.493Z,5.53
2019-03-16T15:18:46.079Z,4.73
2019-03-16T15:21:16.567Z,5.10
2019-03-16T15:23:47.070Z,5.37
2019-03-16T15:26:17.541Z,4.90
2019-03-16T15:28:54.740Z,4.77
2019-03-16T15:31:22.539Z,5.10
2019-03-16T15:33:52.181Z,5.50
2019-03-16T15:36:22.675Z,5.20
2019-03-16T15:38:53.230Z,5.00
2019-03-16T15:41:23.733Z,5.13
2019-03-16T15:43:54.298Z,5.37
2019-03-16T15:46:24.840Z,6.20
2019-03-16T15:48:55.314Z,6.23
2019-03-16T15:51:26.068Z,5.73
2019-03-16T15:53:56.551Z,5.23
2019-03-16T15:56:27.875Z,6.17
2019-03-16T15:58:58.422Z,6.03
2019-03-16T16:01:29.029Z,7.40
2019-03-16T16:03:59.512Z,6.33
2019-03-16T16:06:29.991Z,7.13
2019-03-16T16:09:00.736Z,5.33
2019-03-16T16:11:31.402Z,5.93
2019-03-16T16:14:02.429Z,6.13
2019-03-16T16:16:32.988Z,6.47
2019-03-16T16:19:03.520Z,6.30
2019-03-16T16:21:34.062Z,6.47
2019-03-16T16:24:05.853Z,5.60
2019-03-16T16:26:36.333Z,6.00
2019-03-16T16:29:06.997Z,5.57
2019-03-16T16:31:37.713Z,5.87
2019-03-16T16:34:08.273Z,5.00
2019-03-16T16:36:39.485Z,5.60
2019-03-16T16:39:10.034Z,5.67
2019-03-16T16:41:40.657Z,5.70
2019-03-16T16:44:11.266Z,5.43
2019-03-16T16:46:41.703Z,4.50
2019-03-16T16:49:12.201Z,5.13
2019-03-16T16:51:42.788Z,6.50
2019-03-16T16:54:13.306Z,6.13
2019-03-16T16:56:43.883Z,6.30
2019-03-16T16:59:14.520Z,5.70
2019-03-16T17:01:45.035Z,6.37
2019-03-16T17:04:15.726Z,5.60
2019-03-16T17:06:47.371Z,6.50
2019-03-16T17:09:18.771Z,6.17
2019-03-16T17:11:49.334Z,5.90
2019-03-16T17:14:19.832Z,5.90
2019-03-16T17:16:50.324Z,6.30
2019-03-16T17:19:20.816Z,5.83
2019-03-16T17:21:51.331Z,5.97
2019-03-16T17:24:21.954Z,6.57
2019-03-16T17:26:54.119Z,6.90
2019-03-16T17:29:24.617Z,6.03
2019-03-16T17:31:55.211Z,6.60
2019-03-16T17:34:25.955Z,6.40
2019-03-16T17:36:56.533Z,5.07
2019-03-16T17:39:27.055Z,6.27
2019-03-16T17:41:57.613Z,7.00
2019-03-16T17:44:28.092Z,7.03
2019-03-16T17:46:58.724Z,6.30
2019-03-16T17:49:29.250Z,6.47
2019-03-16T17:51:59.874Z,6.33
2019-03-16T17:54:30.464Z,6.93
2019-03-16T17:57:00.960Z,5.27
2019-03-16T17:59:32.537Z,5.03
2019-03-16T18:02:03.309Z,5.33
2019-03-16T18:04:33.780Z,5.00
2019-03-16T18:07:04.341Z,5.97
2019-03-16T18:09:34.839Z,6.40
2019-03-16T18:12:05.478Z,5.70
2019-03-16T18:14:35.961Z,6.07
2019-03-16T18:17:06.585Z,5.77
2019-03-16T18:19:37.377Z,5.67
2019-03-16T18:22:07.801Z,5.87
2019-03-16T18:24:38.345Z,5.33
2019-03-16T18:27:08.855Z,5.93
2019-03-16T18:29:39.349Z,5.90
2019-03-16T18:32:09.966Z,6.10
2019-03-16T18:34:40.529Z,5.47
2019-03-16T18:37:11.076Z,5.27
2019-03-16T18:39:41.796Z,4.90
2019-03-16T18:42:12.462Z,6.10
2019-03-16T18:44:42.967Z,6.97
2019-03-16T18:47:13.552Z,8.18
2019-03-16T18:49:44.144Z,6.70
2019-03-16T18:52:14.738Z,6.17
2019-03-16T18:54:45.245Z,6.03
2019-03-16T18:57:15.872Z,5.77
2019-03-16T18:59:46.303Z,5.83
2019-03-16T19:02:20.904Z,6.30
2019-03-16T19:04:48.972Z,5.40
2019-03-16T19:07:19.481Z,6.40
2019-03-16T19:09:50.113Z,5.20
2019-03-16T19:12:22.192Z,5.37
2019-03-16T19:14:52.692Z,4.90
2019-03-16T19:17:23.210Z,5.07
2019-03-16T19:19:53.806Z,4.70
2019-03-16T19:22:24.410Z,5.07
2019-03-16T19:24:55.070Z,5.67
2019-03-16T19:27:25.672Z,5.70
2019-03-16T19:29:56.214Z,5.33
2019-03-16T19:32:33.629Z,4.83
2019-03-16T19:34:59.187Z,4.97
2019-03-16T19:37:29.715Z,4.97
2019-03-16T19:40:00.164Z,5.10
2019-03-16T19:42:30.599Z,5.07
2019-03-16T19:45:01.161Z,6.23
2019-03-16T19:47:31.707Z,5.70
2019-03-16T19:50:02.263Z,5.03
2019-03-16T19:52:32.833Z,6.37
2019-03-16T19:55:03.370Z,4.87
2019-03-16T19:57:33.946Z,5.60
2019-03-16T20:00:04.826Z,5.10
2019-03-16T20:02:46.021Z,6.40
2019-03-16T20:05:07.945Z,6.30
2019-03-16T20:07:38.463Z,6.93
2019-03-16T20:10:10.197Z,5.70
2019-03-16T20:12:40.782Z,6.57
2019-03-16T20:15:11.684Z,5.77
2019-03-16T20:17:43.274Z,7.00
2019-03-16T20:20:14.107Z,7.53
2019-03-16T20:22:45.672Z,7.67
2019-03-16T20:25:16.412Z,7.23
2019-03-16T20:27:47.159Z,8.00
2019-03-16T20:30:25.696Z,7.20
2019-03-16T20:33:02.650Z,7.93
2019-03-16T20:35:22.318Z,7.73
2019-03-16T20:37:53.087Z,8.50
2019-03-16T20:40:23.699Z,8.27
2019-03-16T20:42:55.897Z,8.60
2019-03-16T20:45:26.527Z,9.90
2019-03-16T20:47:57.178Z,8.30
2019-03-16T20:50:27.753Z,9.77
2019-03-16T20:52:58.386Z,11.13
2019-03-16T20:55:28.995Z,11.13
2019-03-16T20:57:59.671Z,11.60
2019-03-16T21:00:30.211Z,11.37
2019-03-16T21:03:00.735Z,11.00
2019-03-16T21:05:31.317Z,12.73
2019-03-16T21:08:01.791Z,11.73
2019-03-16T21:10:32.311Z,10.67
2019-03-16T21:13:02.919Z,11.17
2019-03-16T21:15:33.360Z,10.67
2019-03-16T21:18:04.923Z,9.67
2019-03-16T21:20:35.383Z,10.53
2019-03-16T21:23:06.051Z,9.53
2019-03-16T21:25:36.685Z,9.40
2019-03-16T21:28:07.415Z,9.27
2019-03-16T21:30:38.279Z,9.00
2019-03-16T21:33:09.046Z,10.20
2019-03-16T21:35:39.564Z,8.63
2019-03-16T21:38:10.444Z,9.83
2019-03-16T21:40:40.967Z,9.17
2019-03-16T21:43:12.047Z,10.00
2019-03-16T21:45:42.978Z,9.50
2019-03-16T21:48:13.558Z,9.23
2019-03-16T21:50:44.032Z,9.73
2019-03-16T21:53:14.628Z,8.07
2019-03-16T21:55:45.162Z,9.27
2019-03-16T21:58:15.615Z,8.83
2019-03-16T22:00:46.365Z,9.77
2019-03-16T22:03:16.845Z,10.37
2019-03-16T22:05:50.322Z,11.50
2019-03-16T22:08:20.835Z,10.93
2019-03-16T22:10:51.399Z,13.13
2019-03-16T22:13:21.878Z,13.00
2019-03-16T22:15:52.409Z,12.03
2019-03-16T22:18:22.893Z,11.93
2019-03-16T22:20:53.382Z,12.20
2019-03-16T22:23:23.822Z,11.80
2019-03-16T22:25:54.388Z,10.97
2019-03-16T22:28:24.866Z,11.33
2019-03-16T22:30:56.396Z,10.53
2019-03-16T22:33:26.819Z,9.70
2019-03-16T22:35:57.406Z,9.73
2019-03-16T22:38:28.006Z,10.97
2019-03-16T22:40:58.607Z,9.57
2019-03-16T22:43:29.113Z,10.80
2019-03-16T22:45:59.799Z,12.07
2019-03-16T22:48:30.270Z,13.40
2019-03-16T22:51:00.821Z,12.47
2019-03-16T22:53:31.378Z,12.53
2019-03-16T22:56:01.929Z,13.33
2019-03-16T22:58:32.451Z,13.43
2019-03-16T23:01:03.150Z,14.20
2019-03-16T23:03:33.997Z,12.97
2019-03-16T23:06:04.635Z,15.30
2019-03-16T23:08:37.726Z,16.53
2019-03-16T23:11:08.177Z,15.60
2019-03-16T23:13:38.739Z,15.13
2019-03-16T23:16:09.241Z,44.97
2019-03-16T23:18:39.725Z,32.67
2019-03-16T23:21:10.131Z,27.37
2019-03-16T23:23:42.617Z,26.37
2019-03-16T23:26:12.778Z,25.57
2019-03-16T23:28:43.392Z,20.90
2019-03-16T23:31:13.914Z,19.20
2019-03-16T23:33:44.688Z,17.60
2019-03-16T23:36:15.184Z,16.13
2019-03-16T23:38:45.840Z,15.00
2019-03-16T23:41:16.396Z,16.30
2019-03-16T23:43:46.990Z,16.67
2019-03-16T23:46:17.459Z,15.50
2019-03-16T23:48:49.025Z,16.87
2019-03-16T23:51:19.578Z,17.40
2019-03-16T23:53:50.173Z,15.93
2019-03-16T23:56:20.608Z,17.07
2019-03-16T23:58:51.110Z,16.20
